Station Historical Data
Daily Summary for November 2, 2017 Units:  English    Metric   Both
Next Day »
Daily Weekly Monthly Yearly Custom
  High: Low: Average:
Temperature: 50.6 °F 46.7 °F 48.3 °F
Dew Point: 45.0 °F 42.5 °F 43.8 °F
Humidity: 89% 81% 84%
Wind Speed: 9.0mph 0.0mph 2mph
Wind Gust: 12.0mph - -
Wind- - SE
Pressure: 30.06 in 30.00 in -
Precipitation: 0.00 in    
Historical Graphs
 
 
Tabular Data for November 2, 2017
Time Temperature Dew Point Pressure Wind Wind Speed Wind Gust Humidity Rainfall Rate (Hourly) solar Conditions
00:04 48.0 °F 43.4 °F 30.01 in Calm   8.0 mph 84% 0.00 in 0.00 W/m2
00:09 48.0 °F 43.7 °F 30.01 in SE 4.0 mph 8.0 mph 85% 0.00 in 0.00 W/m2
00:14 47.9 °F 43.6 °F 30.00 in SE 5.0 mph 9.0 mph 85% 0.00 in 0.00 W/m2
00:19 47.9 °F 43.6 °F 30.00 in SE 2.0 mph 10.0 mph 85% 0.00 in 0.00 W/m2
00:24 47.8 °F 43.5 °F 30.01 in SE 2.0 mph 9.0 mph 85% 0.00 in 0.00 W/m2
00:29 47.8 °F 43.5 °F 30.01 in SE 4.0 mph 8.0 mph 85% 0.00 in 0.00 W/m2
00:34 47.8 °F 43.5 °F 30.01 in SE 5.0 mph 9.0 mph 85% 0.00 in 0.00 W/m2
00:35 47.8 °F 43.5 °F 30.01 in SE 4.0 mph 9.0 mph 85% 0.00 in 0.00 W/m2
00:40 47.8 °F 43.5 °F 30.01 in SE 5.0 mph 9.0 mph 85% 0.00 in 0.00 W/m2
00:45 47.8 °F 43.5 °F 30.01 in SE 5.0 mph 12.0 mph 85% 0.00 in 0.00 W/m2
00:50 47.8 °F 43.5 °F 30.01 in SE 6.0 mph 11.0 mph 85% 0.00 in 0.00 W/m2
00:55 47.8 °F 43.5 °F 30.00 in SE 4.0 mph 8.0 mph 85% 0.00 in 0.00 W/m2
01:00 47.8 °F 43.5 °F 30.00 in SE 6.0 mph 9.0 mph 85% 0.00 in 0.00 W/m2
01:05 47.8 °F 43.5 °F 30.00 in SE 6.0 mph 9.0 mph 85% 0.00 in 0.00 W/m2
01:10 47.8 °F 43.5 °F 30.00 in SE 1.0 mph 7.0 mph 85% 0.00 in 0.00 W/m2
01:15 47.7 °F 43.4 °F 30.00 in SE 2.0 mph 8.0 mph 85% 0.00 in 0.00 W/m2
01:20 47.7 °F 43.4 °F 30.00 in Calm   8.0 mph 85% 0.00 in 0.00 W/m2
01:21 47.7 °F 43.4 °F 30.00 in Calm     85% 0.00 in 0.00 W/m2
01:26 47.7 °F 43.4 °F 30.00 in SE 5.0 mph 7.0 mph 85% 0.00 in 0.00 W/m2
01:31 47.7 °F 43.4 °F 30.00 in SE 4.0 mph 6.0 mph 85% 0.00 in 0.00 W/m2
01:36 47.7 °F 43.4 °F 30.00 in SE 1.0 mph 4.0 mph 85% 0.00 in 0.00 W/m2
01:41 47.6 °F 43.3 °F 30.00 in SE 2.0 mph 7.0 mph 85% 0.00 in 0.00 W/m2
01:46 47.6 °F 43.3 °F 30.01 in SE 6.0 mph 6.0 mph 85% 0.00 in 0.00 W/m2
01:51 47.6 °F 43.3 °F 30.01 in SE 4.0 mph 4.0 mph 85% 0.00 in 0.00 W/m2
01:56 47.5 °F 43.2 °F 30.01 in Calm   7.0 mph 85% 0.00 in 0.00 W/m2
02:01 47.5 °F 43.2 °F 30.01 in SE 2.0 mph 6.0 mph 85% 0.00 in 0.00 W/m2
02:06 47.4 °F 43.1 °F 30.01 in SE 4.0 mph 7.0 mph 85% 0.00 in 0.00 W/m2
02:11 47.4 °F 43.1 °F 30.01 in SE 5.0 mph 6.0 mph 85% 0.00 in 0.00 W/m2
02:16 47.3 °F 43.0 °F 30.01 in SE 9.0 mph 9.0 mph 85% 0.00 in 0.00 W/m2
02:21 47.2 °F 42.9 °F 30.01 in SE 5.0 mph 5.0 mph 85% 0.00 in 0.00 W/m2
02:26 47.1 °F 42.8 °F 30.01 in Calm   6.0 mph 85% 0.00 in 0.00 W/m2
02:31 47.0 °F 43.0 °F 30.01 in SE 4.0 mph 6.0 mph 86% 0.00 in 0.00 W/m2
02:36 47.0 °F 42.7 °F 30.01 in SE 5.0 mph 8.0 mph 85% 0.00 in 0.00 W/m2
02:41 47.0 °F 42.7 °F 30.01 in SE 6.0 mph 6.0 mph 85% 0.00 in 0.00 W/m2
02:46 46.9 °F 42.6 °F 30.01 in SE 8.0 mph 9.0 mph 85% 0.00 in 0.00 W/m2
02:51 46.9 °F 42.6 °F 30.02 in SE 5.0 mph 7.0 mph 85% 0.00 in 0.00 W/m2
02:52 46.9 °F 42.6 °F 30.02 in Calm   7.0 mph 85% 0.00 in 0.00 W/m2
02:57 46.9 °F 42.6 °F 30.02 in SE 6.0 mph 8.0 mph 85% 0.00 in 0.00 W/m2
03:02 46.9 °F 42.6 °F 30.02 in SE 7.0 mph 7.0 mph 85% 0.00 in 0.00 W/m2
03:07 46.9 °F 42.6 °F 30.02 in SE 6.0 mph 7.0 mph 85% 0.00 in 0.00 W/m2
03:12 46.9 °F 42.6 °F 30.02 in SE 4.0 mph 8.0 mph 85% 0.00 in 0.00 W/m2
03:17 46.9 °F 42.6 °F 30.02 in SE 5.0 mph 7.0 mph 85% 0.00 in 0.00 W/m2
03:22 46.9 °F 42.6 °F 30.02 in SE 1.0 mph 8.0 mph 85% 0.00 in 0.00 W/m2
03:27 46.9 °F 42.6 °F 30.01 in Calm   8.0 mph 85% 0.00 in 0.00 W/m2
03:32 46.8 °F 42.5 °F 30.02 in SE 5.0 mph 8.0 mph 85% 0.00 in 0.00 W/m2
03:37 46.8 °F 42.5 °F 30.02 in Calm   1.0 mph 85% 0.00 in 0.00 W/m2
03:42 46.8 °F 42.5 °F 30.01 in SE 6.0 mph 8.0 mph 85% 0.00 in 0.00 W/m2
03:47 46.8 °F 42.5 °F 30.01 in SE 5.0 mph 5.0 mph 85% 0.00 in 0.00 W/m2
03:52 46.7 °F 42.7 °F 30.02 in Calm   6.0 mph 86% 0.00 in 0.00 W/m2
03:57 46.7 °F 42.7 °F 30.01 in ESE 4.0 mph 7.0 mph 86% 0.00 in 0.00 W/m2
04:02 46.7 °F 42.7 °F 30.02 in Calm   5.0 mph 86% 0.00 in 0.00 W/m2
04:07 46.7 °F 42.7 °F 30.01 in ESE 4.0 mph 6.0 mph 86% 0.00 in 0.00 W/m2
04:12 46.7 °F 42.7 °F 30.01 in ESE 4.0 mph 5.0 mph 86% 0.00 in 0.00 W/m2
04:17 46.7 °F 42.7 °F 30.01 in Calm   6.0 mph 86% 0.00 in 0.00 W/m2
04:22 46.8 °F 42.8 °F 30.01 in Calm   6.0 mph 86% 0.00 in 0.00 W/m2
04:27 46.8 °F 42.8 °F 30.02 in Calm   8.0 mph 86% 0.00 in 0.00 W/m2
04:32 46.9 °F 42.9 °F 30.02 in ESE 1.0 mph 7.0 mph 86% 0.00 in 0.00 W/m2
04:37 47.0 °F 43.0 °F 30.02 in ESE 5.0 mph 6.0 mph 86% 0.00 in 0.00 W/m2
04:42 47.1 °F 43.1 °F 30.02 in ESE 2.0 mph 6.0 mph 86% 0.00 in 0.00 W/m2
04:47 47.3 °F 43.3 °F 30.02 in ESE 6.0 mph 6.0 mph 86% 0.00 in 0.00 W/m2
04:52 47.4 °F 43.4 °F 30.02 in Calm   5.0 mph 86% 0.00 in 0.00 W/m2
04:57 47.5 °F 43.5 °F 30.02 in Calm   1.0 mph 86% 0.00 in 0.00 W/m2
05:02 47.6 °F 43.6 °F 30.02 in Calm   6.0 mph 86% 0.00 in 0.00 W/m2
05:07 47.7 °F 44.6 °F 30.02 in Calm   5.0 mph 89% 0.00 in 0.00 W/m2
05:12 47.9 °F 43.9 °F 30.01 in Calm     86% 0.00 in 0.00 W/m2
05:18 48.0 °F 43.7 °F 30.02 in Calm   4.0 mph 85% 0.00 in 0.00 W/m2
05:23 48.0 °F 43.7 °F 30.02 in ESE 4.0 mph 4.0 mph 85% 0.00 in 0.00 W/m2
05:28 48.1 °F 43.8 °F 30.02 in Calm     85% 0.00 in 0.00 W/m2
05:33 48.2 °F 43.9 °F 30.02 in Calm     85% 0.00 in 0.00 W/m2
05:38 48.3 °F 44.0 °F 30.02 in Calm     85% 0.00 in 0.00 W/m2
05:43 48.4 °F 44.1 °F 30.02 in Calm     85% 0.00 in 0.00 W/m2
05:48 48.5 °F 44.2 °F 30.02 in Calm     85% 0.00 in 0.00 W/m2
05:53 48.5 °F 44.2 °F 30.02 in Calm   1.0 mph 85% 0.00 in 0.00 W/m2
05:58 48.6 °F 44.3 °F 30.02 in Calm   4.0 mph 85% 0.00 in 0.00 W/m2
06:03 48.7 °F 44.4 °F 30.02 in Calm   6.0 mph 85% 0.00 in 0.00 W/m2
06:08 48.8 °F 44.5 °F 30.02 in Calm   1.0 mph 85% 0.00 in 0.00 W/m2
06:13 48.8 °F 44.5 °F 30.02 in Calm   4.0 mph 85% 0.00 in 0.00 W/m2
06:18 48.9 °F 44.6 °F 30.02 in Calm   2.0 mph 85% 0.00 in 0.00 W/m2
06:23 49.0 °F 44.4 °F 30.02 in Calm   4.0 mph 84% 0.00 in 0.00 W/m2
06:28 49.0 °F 44.4 °F 30.02 in Calm   2.0 mph 84% 0.00 in 0.00 W/m2
06:34 49.1 °F 44.5 °F 30.02 in Calm     84% 0.00 in 0.00 W/m2
06:39 49.1 °F 44.5 °F 30.02 in Calm   5.0 mph 84% 0.00 in 0.00 W/m2
06:44 49.2 °F 44.6 °F 30.02 in Calm   1.0 mph 84% 0.00 in 0.00 W/m2
06:49 49.2 °F 44.6 °F 30.02 in Calm   2.0 mph 84% 0.00 in 0.00 W/m2
06:54 49.3 °F 44.7 °F 30.02 in Calm   5.0 mph 84% 0.00 in 0.00 W/m2
06:59 49.3 °F 44.7 °F 30.02 in Calm   5.0 mph 84% 0.00 in 0.00 W/m2
07:04 49.3 °F 44.7 °F 30.02 in ESE 4.0 mph 4.0 mph 84% 0.00 in 0.00 W/m2
07:09 49.4 °F 44.8 °F 30.02 in Calm   5.0 mph 84% 0.00 in 0.00 W/m2
07:14 49.4 °F 44.5 °F 30.02 in Calm   7.0 mph 83% 0.00 in 0.00 W/m2
07:19 49.4 °F 44.5 °F 30.02 in Calm   5.0 mph 83% 0.00 in 0.00 W/m2
07:24 49.5 °F 44.6 °F 30.02 in Calm   6.0 mph 83% 0.00 in 0.00 W/m2
07:29 49.5 °F 44.6 °F 30.03 in Calm     83% 0.00 in 0.00 W/m2
07:34 49.5 °F 44.6 °F 30.03 in Calm   5.0 mph 83% 0.00 in 0.00 W/m2
07:39 49.5 °F 44.6 °F 30.03 in Calm     83% 0.00 in 0.00 W/m2
07:44 49.6 °F 44.7 °F 30.03 in Calm   1.0 mph 83% 0.00 in 0.00 W/m2
07:49 49.6 °F 44.7 °F 30.03 in Calm   5.0 mph 83% 0.00 in 5.00 W/m2
07:54 49.5 °F 44.2 °F 30.03 in Calm   6.0 mph 82% 0.00 in 5.00 W/m2
07:59 49.6 °F 44.7 °F 30.03 in Calm   5.0 mph 83% 0.00 in 7.00 W/m2
08:04 49.5 °F 44.6 °F 30.03 in Calm   6.0 mph 83% 0.00 in 9.00 W/m2
08:09 49.5 °F 44.2 °F 30.03 in ESE 4.0 mph 6.0 mph 82% 0.00 in 9.00 W/m2
08:14 49.5 °F 44.2 °F 30.04 in Calm   4.0 mph 82% 0.00 in 11.00 W/m2
08:19 49.5 °F 44.2 °F 30.04 in ESE 1.0 mph 7.0 mph 82% 0.00 in 11.00 W/m2
08:24 49.5 °F 44.2 °F 30.04 in Calm   8.0 mph 82% 0.00 in 12.00 W/m2
08:29 49.5 °F 44.2 °F 30.04 in ESE 2.0 mph 8.0 mph 82% 0.00 in 14.00 W/m2
08:34 49.5 °F 44.2 °F 30.04 in Calm   8.0 mph 82% 0.00 in 16.00 W/m2
08:39 49.6 °F 44.3 °F 30.04 in ESE 4.0 mph 7.0 mph 82% 0.00 in 18.00 W/m2
08:41 49.6 °F 44.3 °F 30.05 in Calm   4.0 mph 82% 0.00 in 19.00 W/m2
08:46 49.6 °F 44.3 °F 30.05 in Calm     82% 0.00 in 26.00 W/m2
08:51 49.6 °F 44.3 °F 30.05 in ESE 7.0 mph 9.0 mph 82% 0.00 in 26.00 W/m2
08:56 49.6 °F 44.3 °F 30.05 in Calm   4.0 mph 82% 0.00 in 30.00 W/m2
09:01 49.7 °F 44.4 °F 30.05 in ESE 4.0 mph 4.0 mph 82% 0.00 in 39.00 W/m2
09:06 49.7 °F 44.4 °F 30.05 in Calm   1.0 mph 82% 0.00 in 40.00 W/m2
09:11 49.8 °F 44.5 °F 30.05 in ESE 5.0 mph 5.0 mph 82% 0.00 in 47.00 W/m2
09:16 49.9 °F 44.6 °F 30.05 in ESE 1.0 mph 6.0 mph 82% 0.00 in 49.00 W/m2
09:21 49.9 °F 44.6 °F 30.05 in Calm     82% 0.00 in 53.00 W/m2
09:24 49.9 °F 44.6 °F 30.05 in ESE 1.0 mph 8.0 mph 82% 0.00 in 56.00 W/m2
09:29 50.0 °F 44.7 °F 30.05 in Calm   5.0 mph 82% 0.00 in 60.00 W/m2
09:34 50.0 °F 44.7 °F 30.06 in Calm   5.0 mph 82% 0.00 in 56.00 W/m2
09:39 50.1 °F 44.8 °F 30.06 in ESE 5.0 mph 5.0 mph 82% 0.00 in 56.00 W/m2
09:44 50.1 °F 44.8 °F 30.06 in Calm   6.0 mph 82% 0.00 in 62.00 W/m2
09:49 50.2 °F 44.9 °F 30.06 in Calm   1.0 mph 82% 0.00 in 60.00 W/m2
09:54 50.3 °F 45.0 °F 30.06 in Calm   4.0 mph 82% 0.00 in 65.00 W/m2
09:59 50.4 °F 44.8 °F 30.06 in Calm   7.0 mph 81% 0.00 in 70.00 W/m2
10:04 50.4 °F 44.8 °F 30.06 in Calm   8.0 mph 81% 0.00 in 69.00 W/m2
10:09 50.5 °F 44.9 °F 30.06 in ESE 2.0 mph 6.0 mph 81% 0.00 in 72.00 W/m2
10:14 50.5 °F 44.9 °F 30.06 in Calm   6.0 mph 81% 0.00 in 76.00 W/m2
10:19 50.6 °F 45.0 °F 30.06 in Calm   5.0 mph 81% 0.00 in 81.00 W/m2
Foresthill Weather
 WU-history PHP script courtesy of   Juneau County Weather.
powered by Cumulus v1.9.3 (1059)
Ambient Weather VWS v14.00
Top Contact Website Map Copyright © 2007 - 2018 Foresthillweather.com Never base important decisions on this or any weather information obtained from the Internet